sensor_id;sensor_type;location;lat;lon;timestamp;pressure;altitude;pressure_sealevel;temperature;humidity
20455;BME280;10386;54.314;10.022;2024-02-21T00:00:32;102301.81;;;8.83;100.00
20455;BME280;10386;54.314;10.022;2024-02-21T00:02:59;102289.47;;;8.76;100.00
20455;BME280;10386;54.314;10.022;2024-02-21T00:05:28;102278.38;;;8.82;100.00
20455;BME280;10386;54.314;10.022;2024-02-21T00:07:56;102275.66;;;8.82;100.00
20455;BME280;10386;54.314;10.022;2024-02-21T00:10:23;102269.88;;;8.91;100.00
20455;BME280;10386;54.314;10.022;2024-02-21T00:12:50;102257.97;;;8.95;100.00
20455;BME280;10386;54.314;10.022;2024-02-21T00:15:17;102250.78;;;8.94;100.00
20455;BME280;10386;54.314;10.022;2024-02-21T00:17:44;102240.91;;;8.93;100.00
20455;BME280;10386;54.314;10.022;2024-02-21T00:20:11;102245.75;;;9.06;100.00
20455;BME280;10386;54.314;10.022;2024-02-21T00:22:38;102222.63;;;8.98;100.00
20455;BME280;10386;54.314;10.022;2024-02-21T00:25:05;102211.66;;;9.01;100.00
20455;BME280;10386;54.314;10.022;2024-02-21T00:27:32;102200.09;;;8.97;100.00
20455;BME280;10386;54.314;10.022;2024-02-21T00:29:59;102204.22;;;9.06;100.00
20455;BME280;10386;54.314;10.022;2024-02-21T00:32:26;102200.91;;;8.99;100.00
20455;BME280;10386;54.314;10.022;2024-02-21T00:34:53;102194.59;;;8.99;100.00
20455;BME280;10386;54.314;10.022;2024-02-21T00:37:20;102193.59;;;9.01;100.00
20455;BME280;10386;54.314;10.022;2024-02-21T00:39:47;102185.50;;;9.00;100.00
20455;BME280;10386;54.314;10.022;2024-02-21T00:42:14;102182.66;;;9.03;100.00
20455;BME280;10386;54.314;10.022;2024-02-21T00:44:40;102167.19;;;9.06;100.00
20455;BME280;10386;54.314;10.022;2024-02-21T00:47:07;102166.41;;;9.03;100.00
20455;BME280;10386;54.314;10.022;2024-02-21T00:49:34;102166.09;;;9.10;100.00
20455;BME280;10386;54.314;10.022;2024-02-21T00:52:01;102154.59;;;9.05;100.00
20455;BME280;10386;54.314;10.022;2024-02-21T00:54:28;102146.38;;;9.07;100.00
20455;BME280;10386;54.314;10.022;2024-02-21T00:57:12;102155.41;;;9.07;100.00
20455;BME280;10386;54.314;10.022;2024-02-21T00:59:39;102148.28;;;9.05;100.00
20455;BME280;10386;54.314;10.022;2024-02-21T01:02:06;102148.41;;;9.02;100.00
20455;BME280;10386;54.314;10.022;2024-02-21T01:04:34;102144.75;;;9.03;100.00
20455;BME280;10386;54.314;10.022;2024-02-21T01:07:01;102135.81;;;9.01;100.00
20455;BME280;10386;54.314;10.022;2024-02-21T01:09:28;102129.38;;;9.03;100.00
20455;BME280;10386;54.314;10.022;2024-02-21T01:11:55;102126.88;;;8.99;100.00
20455;BME280;10386;54.314;10.022;2024-02-21T01:14:22;102115.09;;;9.00;100.00
20455;BME280;10386;54.314;10.022;2024-02-21T01:16:49;102119.69;;;8.98;100.00
20455;BME280;10386;54.314;10.022;2024-02-21T01:19:16;102104.94;;;9.05;100.00
20455;BME280;10386;54.314;10.022;2024-02-21T01:21:43;101683.31;;;9.04;100.00
20455;BME280;10386;54.314;10.022;2024-02-21T01:24:10;101677.53;;;9.11;100.00
20455;BME280;10386;54.314;10.022;2024-02-21T01:26:37;101661.81;;;9.01;100.00
20455;BME280;10386;54.314;10.022;2024-02-21T01:29:04;101632.75;;;9.04;100.00
20455;BME280;10386;54.314;10.022;2024-02-21T01:31:31;101623.84;;;9.02;100.00
20455;BME280;10386;54.314;10.022;2024-02-21T01:33:58;101614.97;;;8.99;100.00
20455;BME280;10386;54.314;10.022;2024-02-21T01:36:25;101611.31;;;9.00;100.00
20455;BME280;10386;54.314;10.022;2024-02-21T01:38:52;101593.25;;;9.00;100.00
20455;BME280;10386;54.314;10.022;2024-02-21T01:41:19;101562.50;;;9.01;100.00
20455;BME280;10386;54.314;10.022;2024-02-21T01:43:46;101519.00;;;9.04;100.00
20455;BME280;10386;54.314;10.022;2024-02-21T01:46:13;101496.53;;;9.02;100.00
20455;BME280;10386;54.314;10.022;2024-02-21T01:48:40;101523.00;;;8.97;100.00
20455;BME280;10386;54.314;10.022;2024-02-21T01:51:07;101483.00;;;9.02;100.00
20455;BME280;10386;54.314;10.022;2024-02-21T01:53:37;101467.09;;;8.96;100.00
20455;BME280;10386;54.314;10.022;2024-02-21T01:56:06;101465.06;;;9.00;100.00
20455;BME280;10386;54.314;10.022;2024-02-21T01:58:35;101460.56;;;9.00;100.00
20455;BME280;10386;54.314;10.022;2024-02-21T02:01:04;101431.72;;;8.99;100.00
20455;BME280;10386;54.314;10.022;2024-02-21T02:03:31;101416.09;;;9.04;100.00
20455;BME280;10386;54.314;10.022;2024-02-21T02:05:58;101378.06;;;9.06;100.00
20455;BME280;10386;54.314;10.022;2024-02-21T02:08:26;101369.16;;;9.04;100.00
20455;BME280;10386;54.314;10.022;2024-02-21T02:10:53;101358.25;;;9.05;100.00
20455;BME280;10386;54.314;10.022;2024-02-21T02:13:20;101343.75;;;9.06;100.00
20455;BME280;10386;54.314;10.022;2024-02-21T02:15:48;101321.72;;;9.12;100.00
20455;BME280;10386;54.314;10.022;2024-02-21T02:18:17;101315.00;;;9.04;100.00
20455;BME280;10386;54.314;10.022;2024-02-21T02:20:44;101308.19;;;9.12;100.00
20455;BME280;10386;54.314;10.022;2024-02-21T02:25:47;101276.72;;;9.10;100.00
20455;BME280;10386;54.314;10.022;2024-02-21T02:28:19;101254.88;;;9.13;100.00
20455;BME280;10386;54.314;10.022;2024-02-21T02:30:47;101241.34;;;9.13;100.00
20455;BME280;10386;54.314;10.022;2024-02-21T02:33:14;101218.28;;;9.06;100.00
20455;BME280;10386;54.314;10.022;2024-02-21T02:35:41;101209.13;;;9.08;100.00
20455;BME280;10386;54.314;10.022;2024-02-21T02:38:08;101186.94;;;9.02;100.00
20455;BME280;10386;54.314;10.022;2024-02-21T02:40:37;101176.63;;;9.08;100.00
20455;BME280;10386;54.314;10.022;2024-02-21T02:43:04;101152.31;;;9.07;100.00
20455;BME280;10386;54.314;10.022;2024-02-21T02:45:32;101155.22;;;9.04;100.00
20455;BME280;10386;54.314;10.022;2024-02-21T02:47:59;101137.81;;;9.08;100.00
20455;BME280;10386;54.314;10.022;2024-02-21T02:50:27;101127.28;;;9.03;100.00
20455;BME280;10386;54.314;10.022;2024-02-21T02:52:54;101119.94;;;9.05;100.00
20455;BME280;10386;54.314;10.022;2024-02-21T02:55:22;100914.97;;;9.06;100.00
20455;BME280;10386;54.314;10.022;2024-02-21T02:57:49;100904.91;;;9.08;100.00
20455;BME280;10386;54.314;10.022;2024-02-21T03:00:16;100901.75;;;9.01;100.00
20455;BME280;10386;54.314;10.022;2024-02-21T03:02:46;100877.94;;;9.06;100.00
20455;BME280;10386;54.314;10.022;2024-02-21T03:05:16;100835.47;;;9.07;100.00
20455;BME280;10386;54.314;10.022;2024-02-21T03:07:44;100822.72;;;9.09;100.00
20455;BME280;10386;54.314;10.022;2024-02-21T03:10:12;100792.16;;;9.07;100.00
20455;BME280;10386;54.314;10.022;2024-02-21T03:12:40;100769.63;;;9.06;100.00
20455;BME280;10386;54.314;10.022;2024-02-21T03:15:08;100751.84;;;9.02;100.00
20455;BME280;10386;54.314;10.022;2024-02-21T03:17:35;100729.22;;;9.03;100.00
20455;BME280;10386;54.314;10.022;2024-02-21T03:20:03;100700.75;;;9.10;100.00
20455;BME280;10386;54.314;10.022;2024-02-21T03:22:36;100678.63;;;9.04;100.00
20455;BME280;10386;54.314;10.022;2024-02-21T03:25:04;100656.13;;;9.03;100.00
20455;BME280;10386;54.314;10.022;2024-02-21T03:27:31;100641.91;;;9.00;100.00
20455;BME280;10386;54.314;10.022;2024-02-21T03:29:58;100599.34;;;9.02;100.00
20455;BME280;10386;54.314;10.022;2024-02-21T03:32:26;100416.97;;;9.03;100.00
20455;BME280;10386;54.314;10.022;2024-02-21T03:34:54;100385.81;;;8.97;100.00
20455;BME280;10386;54.314;10.022;2024-02-21T03:37:21;100339.22;;;8.92;100.00
20455;BME280;10386;54.314;10.022;2024-02-21T03:39:48;100182.13;;;8.94;100.00
20455;BME280;10386;54.314;10.022;2024-02-21T03:42:15;100134.38;;;8.93;100.00
20455;BME280;10386;54.314;10.022;2024-02-21T03:44:42;100124.75;;;8.89;100.00
20455;BME280;10386;54.314;10.022;2024-02-21T03:47:09;100128.44;;;8.88;100.00
20455;BME280;10386;54.314;10.022;2024-02-21T03:49:38;100122.53;;;8.83;100.00
20455;BME280;10386;54.314;10.022;2024-02-21T03:52:06;100116.81;;;8.75;100.00
20455;BME280;10386;54.314;10.022;2024-02-21T03:54:33;100126.00;;;8.72;100.00
20455;BME280;10386;54.314;10.022;2024-02-21T03:57:02;100107.44;;;8.68;100.00
20455;BME280;10386;54.314;10.022;2024-02-21T03:59:29;100120.00;;;8.69;100.00
20455;BME280;10386;54.314;10.022;2024-02-21T04:01:56;100103.84;;;8.67;100.00
20455;BME280;10386;54.314;10.022;2024-02-21T04:04:24;100107.66;;;8.65;100.00
20455;BME280;10386;54.314;10.022;2024-02-21T04:06:51;100114.16;;;8.62;100.00
20455;BME280;10386;54.314;10.022;2024-02-21T04:09:18;100107.47;;;8.55;100.00
20455;BME280;10386;54.314;10.022;2024-02-21T04:11:45;100114.63;;;8.56;100.00
20455;BME280;10386;54.314;10.022;2024-02-21T04:14:13;100125.78;;;8.52;100.00
20455;BME280;10386;54.314;10.022;2024-02-21T04:16:40;100120.25;;;8.53;100.00
20455;BME280;10386;54.314;10.022;2024-02-21T04:19:10;100110.31;;;8.54;100.00
20455;BME280;10386;54.314;10.022;2024-02-21T04:21:38;100125.66;;;8.53;100.00
20455;BME280;10386;54.314;10.022;2024-02-21T04:24:07;100119.84;;;8.47;100.00
20455;BME280;10386;54.314;10.022;2024-02-21T04:26:34;100126.97;;;8.48;100.00
20455;BME280;10386;54.314;10.022;2024-02-21T04:29:01;100128.81;;;8.47;100.00
20455;BME280;10386;54.314;10.022;2024-02-21T04:31:28;100128.06;;;8.45;100.00
20455;BME280;10386;54.314;10.022;2024-02-21T04:33:56;100140.63;;;8.46;100.00
20455;BME280;10386;54.314;10.022;2024-02-21T04:36:25;100131.97;;;8.41;100.00
20455;BME280;10386;54.314;10.022;2024-02-21T04:38:53;100130.66;;;8.47;100.00
20455;BME280;10386;54.314;10.022;2024-02-21T04:41:20;100132.50;;;8.46;100.00
20455;BME280;10386;54.314;10.022;2024-02-21T04:43:47;100151.44;;;8.46;100.00
20455;BME280;10386;54.314;10.022;2024-02-21T04:46:14;100155.44;;;8.41;100.00
20455;BME280;10386;54.314;10.022;2024-02-21T04:48:42;100162.06;;;8.37;100.00
20455;BME280;10386;54.314;10.022;2024-02-21T04:51:11;100161.06;;;8.38;100.00
20455;BME280;10386;54.314;10.022;2024-02-21T04:53:38;100164.66;;;8.38;100.00
20455;BME280;10386;54.314;10.022;2024-02-21T04:56:05;100160.31;;;8.36;100.00
20455;BME280;10386;54.314;10.022;2024-02-21T04:58:32;100173.09;;;8.34;100.00
20455;BME280;10386;54.314;10.022;2024-02-21T05:00:59;100180.00;;;8.38;100.00
20455;BME280;10386;54.314;10.022;2024-02-21T05:03:26;100165.72;;;8.36;100.00
20455;BME280;10386;54.314;10.022;2024-02-21T05:05:53;100183.69;;;8.37;100.00
20455;BME280;10386;54.314;10.022;2024-02-21T05:08:20;100188.47;;;8.33;100.00
20455;BME280;10386;54.314;10.022;2024-02-21T05:10:47;100193.88;;;8.33;100.00
20455;BME280;10386;54.314;10.022;2024-02-21T05:13:14;100173.97;;;8.34;100.00
20455;BME280;10386;54.314;10.022;2024-02-21T05:15:42;100162.50;;;8.31;100.00
20455;BME280;10386;54.314;10.022;2024-02-21T05:18:09;100171.81;;;8.27;100.00
20455;BME280;10386;54.314;10.022;2024-02-21T05:20:36;100176.78;;;8.33;100.00
20455;BME280;10386;54.314;10.022;2024-02-21T05:23:04;100168.25;;;8.26;100.00
20455;BME280;10386;54.314;10.022;2024-02-21T05:25:31;100159.78;;;8.31;100.00
20455;BME280;10386;54.314;10.022;2024-02-21T05:27:58;100179.94;;;8.27;100.00
20455;BME280;10386;54.314;10.022;2024-02-21T05:30:29;100180.06;;;8.25;100.00
20455;BME280;10386;54.314;10.022;2024-02-21T05:32:56;100185.56;;;8.24;100.00
20455;BME280;10386;54.314;10.022;2024-02-21T05:35:27;100184.72;;;8.23;100.00
20455;BME280;10386;54.314;10.022;2024-02-21T05:37:55;100197.56;;;8.20;100.00
20455;BME280;10386;54.314;10.022;2024-02-21T05:40:22;100183.59;;;8.26;100.00
20455;BME280;10386;54.314;10.022;2024-02-21T05:42:48;100205.47;;;8.23;100.00
20455;BME280;10386;54.314;10.022;2024-02-21T05:45:18;100194.31;;;8.27;100.00
20455;BME280;10386;54.314;10.022;2024-02-21T05:47:45;100197.25;;;8.24;100.00
20455;BME280;10386;54.314;10.022;2024-02-21T05:50:11;100199.94;;;8.24;100.00
20455;BME280;10386;54.314;10.022;2024-02-21T05:52:38;100218.97;;;8.23;100.00
20455;BME280;10386;54.314;10.022;2024-02-21T05:55:07;100216.41;;;8.22;100.00
20455;BME280;10386;54.314;10.022;2024-02-21T05:57:35;100219.72;;;8.25;100.00
20455;BME280;10386;54.314;10.022;2024-02-21T06:00:06;100217.69;;;8.28;100.00
20455;BME280;10386;54.314;10.022;2024-02-21T06:02:33;100234.13;;;8.25;100.00
20455;BME280;10386;54.314;10.022;2024-02-21T06:05:00;100254.34;;;8.20;100.00
20455;BME280;10386;54.314;10.022;2024-02-21T06:07:27;100256.19;;;8.20;100.00
20455;BME280;10386;54.314;10.022;2024-02-21T06:09:54;100286.22;;;8.15;100.00
20455;BME280;10386;54.314;10.022;2024-02-21T06:12:20;100280.81;;;8.15;100.00
20455;BME280;10386;54.314;10.022;2024-02-21T06:14:47;100316.28;;;8.11;100.00
20455;BME280;10386;54.314;10.022;2024-02-21T06:17:14;100304.38;;;8.13;100.00
20455;BME280;10386;54.314;10.022;2024-02-21T06:19:42;100330.88;;;8.08;100.00
20455;BME280;10386;54.314;10.022;2024-02-21T06:22:10;100363.59;;;8.04;100.00
20455;BME280;10386;54.314;10.022;2024-02-21T06:24:37;100406.41;;;7.97;100.00
20455;BME280;10386;54.314;10.022;2024-02-21T06:27:04;100410.28;;;7.93;100.00
20455;BME280;10386;54.314;10.022;2024-02-21T06:29:36;100427.47;;;7.92;100.00
20455;BME280;10386;54.314;10.022;2024-02-21T06:32:04;100441.84;;;7.93;100.00
20455;BME280;10386;54.314;10.022;2024-02-21T06:34:31;100472.53;;;7.92;100.00
20455;BME280;10386;54.314;10.022;2024-02-21T06:37:00;100459.34;;;7.87;100.00
20455;BME280;10386;54.314;10.022;2024-02-21T06:39:27;100469.41;;;7.85;100.00
20455;BME280;10386;54.314;10.022;2024-02-21T06:41:56;100509.94;;;7.85;100.00
20455;BME280;10386;54.314;10.022;2024-02-21T06:44:28;100489.75;;;7.77;100.00
20455;BME280;10386;54.314;10.022;2024-02-21T06:46:55;100527.13;;;7.70;100.00
20455;BME280;10386;54.314;10.022;2024-02-21T06:49:22;100535.81;;;7.75;100.00
20455;BME280;10386;54.314;10.022;2024-02-21T06:51:49;100562.84;;;7.75;100.00
20455;BME280;10386;54.314;10.022;2024-02-21T06:54:16;100587.44;;;7.71;100.00
20455;BME280;10386;54.314;10.022;2024-02-21T06:56:43;100611.75;;;7.71;100.00
20455;BME280;10386;54.314;10.022;2024-02-21T06:59:09;100618.81;;;7.73;100.00
20455;BME280;10386;54.314;10.022;2024-02-21T07:01:37;100669.44;;;7.70;100.00
20455;BME280;10386;54.314;10.022;2024-02-21T07:04:04;100679.47;;;7.82;100.00
20455;BME280;10386;54.314;10.022;2024-02-21T07:06:31;100699.47;;;7.79;100.00
20455;BME280;10386;54.314;10.022;2024-02-21T07:09:02;100702.97;;;7.81;100.00
20455;BME280;10386;54.314;10.022;2024-02-21T07:11:29;100730.16;;;7.78;100.00
20455;BME280;10386;54.314;10.022;2024-02-21T07:13:56;100976.94;;;7.79;100.00
20455;BME280;10386;54.314;10.022;2024-02-21T07:16:23;100973.03;;;7.84;100.00
20455;BME280;10386;54.314;10.022;2024-02-21T07:18:49;100995.50;;;7.85;100.00
20455;BME280;10386;54.314;10.022;2024-02-21T07:21:16;100995.84;;;7.79;100.00
20455;BME280;10386;54.314;10.022;2024-02-21T07:23:43;100998.66;;;7.77;100.00
20455;BME280;10386;54.314;10.022;2024-02-21T07:26:10;101027.25;;;7.81;100.00
20455;BME280;10386;54.314;10.022;2024-02-21T07:28:37;101029.50;;;7.73;100.00
20455;BME280;10386;54.314;10.022;2024-02-21T07:31:04;101048.25;;;7.76;100.00
20455;BME280;10386;54.314;10.022;2024-02-21T07:33:31;101059.06;;;7.76;100.00
20455;BME280;10386;54.314;10.022;2024-02-21T07:35:57;101086.44;;;7.70;100.00
20455;BME280;10386;54.314;10.022;2024-02-21T07:38:24;101108.91;;;7.71;100.00
20455;BME280;10386;54.314;10.022;2024-02-21T07:40:51;101160.41;;;7.68;100.00
20455;BME280;10386;54.314;10.022;2024-02-21T07:43:18;101277.66;;;7.65;100.00
20455;BME280;10386;54.314;10.022;2024-02-21T07:45:45;101281.28;;;7.64;100.00
20455;BME280;10386;54.314;10.022;2024-02-21T07:48:12;101289.53;;;7.61;100.00
20455;BME280;10386;54.314;10.022;2024-02-21T07:50:38;101305.59;;;7.64;100.00
20455;BME280;10386;54.314;10.022;2024-02-21T07:53:05;101312.31;;;7.74;100.00
20455;BME280;10386;54.314;10.022;2024-02-21T07:55:32;101310.28;;;7.78;100.00
20455;BME280;10386;54.314;10.022;2024-02-21T07:57:59;101312.38;;;7.73;100.00
20455;BME280;10386;54.314;10.022;2024-02-21T08:00:26;101325.50;;;7.80;100.00
20455;BME280;10386;54.314;10.022;2024-02-21T08:02:53;101316.19;;;7.86;100.00
20455;BME280;10386;54.314;10.022;2024-02-21T08:05:20;101330.16;;;7.94;100.00
20455;BME280;10386;54.314;10.022;2024-02-21T08:07:48;101338.22;;;7.95;100.00
20455;BME280;10386;54.314;10.022;2024-02-21T08:10:15;101343.91;;;8.06;100.00
20455;BME280;10386;54.314;10.022;2024-02-21T08:12:42;101359.41;;;8.03;100.00
20455;BME280;10386;54.314;10.022;2024-02-21T08:15:09;101377.47;;;8.02;100.00
20455;BME280;10386;54.314;10.022;2024-02-21T08:17:37;101379.53;;;8.14;100.00
20455;BME280;10386;54.314;10.022;2024-02-21T08:20:04;101388.78;;;8.10;100.00
20455;BME280;10386;54.314;10.022;2024-02-21T08:22:31;101398.34;;;8.17;100.00
20455;BME280;10386;54.314;10.022;2024-02-21T08:24:58;101415.31;;;8.21;100.00
20455;BME280;10386;54.314;10.022;2024-02-21T08:27:26;101411.88;;;8.17;100.00
20455;BME280;10386;54.314;10.022;2024-02-21T08:29:53;101417.41;;;8.31;100.00
20455;BME280;10386;54.314;10.022;2024-02-21T08:32:19;101419.50;;;8.26;100.00
20455;BME280;10386;54.314;10.022;2024-02-21T08:34:46;101422.78;;;8.32;100.00
20455;BME280;10386;54.314;10.022;2024-02-21T08:37:13;101574.47;;;8.28;100.00
20455;BME280;10386;54.314;10.022;2024-02-21T08:39:40;101581.59;;;8.47;100.00
20455;BME280;10386;54.314;10.022;2024-02-21T08:42:07;101597.47;;;8.55;100.00
20455;BME280;10386;54.314;10.022;2024-02-21T08:44:35;101607.56;;;8.68;100.00
20455;BME280;10386;54.314;10.022;2024-02-21T08:47:02;101617.59;;;8.66;100.00
20455;BME280;10386;54.314;10.022;2024-02-21T08:49:31;101629.84;;;8.56;100.00
20455;BME280;10386;54.314;10.022;2024-02-21T08:52:01;101646.03;;;8.58;100.00
20455;BME280;10386;54.314;10.022;2024-02-21T08:54:30;101653.72;;;8.48;100.00
20455;BME280;10386;54.314;10.022;2024-02-21T08:56:58;101671.47;;;8.54;100.00
20455;BME280;10386;54.314;10.022;2024-02-21T08:59:27;101695.84;;;8.54;100.00
20455;BME280;10386;54.314;10.022;2024-02-21T09:01:54;101700.09;;;8.76;100.00
20455;BME280;10386;54.314;10.022;2024-02-21T09:04:22;101716.50;;;8.90;100.00
20455;BME280;10386;54.314;10.022;2024-02-21T09:06:49;101731.47;;;8.80;100.00
20455;BME280;10386;54.314;10.022;2024-02-21T09:09:16;101744.66;;;8.69;100.00
20455;BME280;10386;54.314;10.022;2024-02-21T09:11:43;101761.50;;;8.76;100.00
20455;BME280;10386;54.314;10.022;2024-02-21T09:14:10;101780.06;;;8.83;100.00
20455;BME280;10386;54.314;10.022;2024-02-21T09:16:38;101803.72;;;8.61;100.00
20455;BME280;10386;54.314;10.022;2024-02-21T09:19:04;101808.53;;;8.73;100.00
20455;BME280;10386;54.314;10.022;2024-02-21T09:21:31;101822.81;;;8.95;100.00
20455;BME280;10386;54.314;10.022;2024-02-21T09:23:58;101842.97;;;9.07;100.00
20455;BME280;10386;54.314;10.022;2024-02-21T09:26:26;101853.56;;;9.30;100.00
20455;BME280;10386;54.314;10.022;2024-02-21T09:28:53;101864.38;;;9.30;100.00
20455;BME280;10386;54.314;10.022;2024-02-21T09:31:20;101865.66;;;9.23;100.00
20455;BME280;10386;54.314;10.022;2024-02-21T09:33:47;101878.13;;;9.08;100.00
20455;BME280;10386;54.314;10.022;2024-02-21T09:36:14;101890.44;;;8.97;100.00
20455;BME280;10386;54.314;10.022;2024-02-21T09:38:41;101906.53;;;9.00;100.00
20455;BME280;10386;54.314;10.022;2024-02-21T09:41:25;101930.59;;;9.06;100.00
20455;BME280;10386;54.314;10.022;2024-02-21T09:43:52;101950.84;;;9.17;100.00
20455;BME280;10386;54.314;10.022;2024-02-21T09:46:41;101956.47;;;9.13;100.00
20455;BME280;10386;54.314;10.022;2024-02-21T09:49:42;101963.84;;;9.28;100.00
20455;BME280;10386;54.314;10.022;2024-02-21T09:52:12;101978.88;;;9.53;100.00
20455;BME280;10386;54.314;10.022;2024-02-21T09:54:41;101996.59;;;9.60;100.00
20455;BME280;10386;54.314;10.022;2024-02-21T09:57:12;102134.38;;;9.70;100.00
20455;BME280;10386;54.314;10.022;2024-02-21T09:59:39;102140.41;;;9.39;100.00
20455;BME280;10386;54.314;10.022;2024-02-21T10:02:08;102138.44;;;9.42;100.00
20455;BME280;10386;54.314;10.022;2024-02-21T10:04:35;102144.69;;;9.62;100.00
20455;BME280;10386;54.314;10.022;2024-02-21T10:07:03;102143.31;;;9.72;100.00
20455;BME280;10386;54.314;10.022;2024-02-21T10:09:31;102142.31;;;9.55;100.00
20455;BME280;10386;54.314;10.022;2024-02-21T10:12:08;102149.75;;;9.70;100.00
20455;BME280;10386;54.314;10.022;2024-02-21T10:14:36;102146.25;;;9.86;100.00
20455;BME280;10386;54.314;10.022;2024-02-21T10:17:04;102144.44;;;9.87;100.00
20455;BME280;10386;54.314;10.022;2024-02-21T10:19:36;102146.50;;;10.00;100.00
20455;BME280;10386;54.314;10.022;2024-02-21T10:22:05;102149.59;;;9.73;100.00
20455;BME280;10386;54.314;10.022;2024-02-21T10:24:35;102144.22;;;9.53;100.00
20455;BME280;10386;54.314;10.022;2024-02-21T10:27:06;102154.31;;;9.69;100.00
20455;BME280;10386;54.314;10.022;2024-02-21T10:29:35;102144.41;;;9.68;100.00
20455;BME280;10386;54.314;10.022;2024-02-21T10:34:38;102151.34;;;9.74;100.00
20455;BME280;10386;54.314;10.022;2024-02-21T10:37:07;102156.50;;;9.61;100.00
20455;BME280;10386;54.314;10.022;2024-02-21T10:39:35;102148.06;;;9.67;100.00
20455;BME280;10386;54.314;10.022;2024-02-21T10:42:03;102153.06;;;9.76;100.00
20455;BME280;10386;54.314;10.022;2024-02-21T10:44:37;102144.13;;;9.74;100.00
20455;BME280;10386;54.314;10.022;2024-02-21T10:47:11;102137.94;;;9.71;100.00
20455;BME280;10386;54.314;10.022;2024-02-21T10:49:44;102134.59;;;9.84;100.00
20455;BME280;10386;54.314;10.022;2024-02-21T10:52:46;102129.81;;;9.89;100.00
20455;BME280;10386;54.314;10.022;2024-02-21T10:57:42;102129.28;;;10.01;100.00
20455;BME280;10386;54.314;10.022;2024-02-21T11:00:10;102123.84;;;10.01;100.00
20455;BME280;10386;54.314;10.022;2024-02-21T11:02:39;102111.06;;;10.03;100.00
20455;BME280;10386;54.314;10.022;2024-02-21T11:05:15;102113.00;;;10.01;100.00
20455;BME280;10386;54.314;10.022;2024-02-21T11:07:42;102120.00;;;10.24;100.00
20455;BME280;10386;54.314;10.022;2024-02-21T11:10:26;102114.00;;;10.17;100.00
20455;BME280;10386;54.314;10.022;2024-02-21T11:13:08;102106.94;;;10.32;100.00
20455;BME280;10386;54.314;10.022;2024-02-21T11:15:35;102111.19;;;10.37;100.00
20455;BME280;10386;54.314;10.022;2024-02-21T11:18:02;102109.50;;;10.35;100.00
20455;BME280;10386;54.314;10.022;2024-02-21T11:20:37;102105.91;;;10.34;100.00
20455;BME280;10386;54.314;10.022;2024-02-21T11:23:04;102098.47;;;10.38;100.00
20455;BME280;10386;54.314;10.022;2024-02-21T11:25:31;102099.25;;;10.58;100.00
20455;BME280;10386;54.314;10.022;2024-02-21T11:28:01;102096.28;;;10.63;100.00
20455;BME280;10386;54.314;10.022;2024-02-21T11:30:33;102092.22;;;10.71;100.00
20455;BME280;10386;54.314;10.022;2024-02-21T11:33:07;102095.78;;;10.55;100.00
20455;BME280;10386;54.314;10.022;2024-02-21T11:35:35;102084.50;;;10.64;100.00
20455;BME280;10386;54.314;10.022;2024-02-21T11:38:12;102084.63;;;10.61;100.00
20455;BME280;10386;54.314;10.022;2024-02-21T11:40:46;102074.22;;;10.52;100.00
20455;BME280;10386;54.314;10.022;2024-02-21T11:43:15;102073.44;;;10.50;100.00
20455;BME280;10386;54.314;10.022;2024-02-21T11:45:41;102079.47;;;10.38;100.00
20455;BME280;10386;54.314;10.022;2024-02-21T11:48:08;102064.63;;;10.28;100.00
20455;BME280;10386;54.314;10.022;2024-02-21T11:50:35;102070.69;;;10.33;100.00
20455;BME280;10386;54.314;10.022;2024-02-21T11:53:03;102062.00;;;10.26;100.00
20455;BME280;10386;54.314;10.022;2024-02-21T11:55:30;102069.84;;;10.32;100.00
20455;BME280;10386;54.314;10.022;2024-02-21T11:57:57;102064.56;;;10.29;100.00
20455;BME280;10386;54.314;10.022;2024-02-21T12:00:25;102054.97;;;10.22;100.00
20455;BME280;10386;54.314;10.022;2024-02-21T12:02:52;102053.44;;;10.17;100.00
20455;BME280;10386;54.314;10.022;2024-02-21T12:05:19;102050.50;;;10.21;100.00
20455;BME280;10386;54.314;10.022;2024-02-21T12:07:47;102039.88;;;10.34;100.00
20455;BME280;10386;54.314;10.022;2024-02-21T12:10:14;102039.25;;;10.46;100.00
20455;BME280;10386;54.314;10.022;2024-02-21T12:12:41;102040.19;;;10.62;100.00
20455;BME280;10386;54.314;10.022;2024-02-21T12:15:08;102033.59;;;10.67;100.00
20455;BME280;10386;54.314;10.022;2024-02-21T12:17:36;102031.50;;;10.72;100.00
20455;BME280;10386;54.314;10.022;2024-02-21T12:20:04;102024.31;;;10.71;100.00
20455;BME280;10386;54.314;10.022;2024-02-21T12:22:44;102027.81;;;10.73;100.00
20455;BME280;10386;54.314;10.022;2024-02-21T12:25:19;102022.22;;;10.76;100.00
20455;BME280;10386;54.314;10.022;2024-02-21T12:27:46;102017.38;;;10.66;100.00
20455;BME280;10386;54.314;10.022;2024-02-21T12:30:13;102013.94;;;10.62;100.00
20455;BME280;10386;54.314;10.022;2024-02-21T12:32:40;102011.28;;;10.61;100.00
20455;BME280;10386;54.314;10.022;2024-02-21T12:35:08;102012.56;;;10.54;100.00
20455;BME280;10386;54.314;10.022;2024-02-21T12:37:35;102009.16;;;10.50;100.00
20455;BME280;10386;54.314;10.022;2024-02-21T12:40:06;102011.22;;;10.45;100.00
20455;BME280;10386;54.314;10.022;2024-02-21T12:42:34;101998.13;;;10.36;100.00
20455;BME280;10386;54.314;10.022;2024-02-21T12:45:02;102003.78;;;10.32;100.00
20455;BME280;10386;54.314;10.022;2024-02-21T12:47:32;102002.03;;;10.31;100.00
20455;BME280;10386;54.314;10.022;2024-02-21T12:49:59;101995.44;;;10.36;100.00